sensor_id;sensor_type;location;lat;lon;timestamp;temperature;humidity
14095;DHT22;18096;48.142;16.290;2024-03-07T00:00:10;7.00;99.90
14095;DHT22;18096;48.142;16.290;2024-03-07T00:02:47;6.90;99.90
14095;DHT22;18096;48.142;16.290;2024-03-07T00:05:14;6.90;99.90
14095;DHT22;18096;48.142;16.290;2024-03-07T00:07:40;6.90;99.90
14095;DHT22;18096;48.142;16.290;2024-03-07T00:10:07;6.90;99.90
14095;DHT22;18096;48.142;16.290;2024-03-07T00:12:34;6.90;99.90
14095;DHT22;18096;48.142;16.290;2024-03-07T00:15:04;6.80;99.90
14095;DHT22;18096;48.142;16.290;2024-03-07T00:17:30;6.80;99.90
14095;DHT22;18096;48.142;16.290;2024-03-07T00:19:55;6.70;99.90
14095;DHT22;18096;48.142;16.290;2024-03-07T00:22:22;6.80;99.90
14095;DHT22;18096;48.142;16.290;2024-03-07T00:24:48;6.80;99.90
14095;DHT22;18096;48.142;16.290;2024-03-07T00:27:14;6.70;99.90
14095;DHT22;18096;48.142;16.290;2024-03-07T00:29:40;6.70;99.90
14095;DHT22;18096;48.142;16.290;2024-03-07T00:32:06;6.70;99.90
14095;DHT22;18096;48.142;16.290;2024-03-07T00:34:33;6.60;99.90
14095;DHT22;18096;48.142;16.290;2024-03-07T00:36:59;6.70;99.90
14095;DHT22;18096;48.142;16.290;2024-03-07T00:39:25;6.60;99.90
14095;DHT22;18096;48.142;16.290;2024-03-07T00:41:51;6.60;99.90
14095;DHT22;18096;48.142;16.290;2024-03-07T00:44:17;6.50;99.90
14095;DHT22;18096;48.142;16.290;2024-03-07T00:46:43;6.50;99.90
14095;DHT22;18096;48.142;16.290;2024-03-07T00:49:08;6.60;99.90
14095;DHT22;18096;48.142;16.290;2024-03-07T00:51:34;6.50;99.90
14095;DHT22;18096;48.142;16.290;2024-03-07T00:54:00;6.50;99.90
14095;DHT22;18096;48.142;16.290;2024-03-07T00:56:26;6.40;99.90
14095;DHT22;18096;48.142;16.290;2024-03-07T00:58:52;6.40;99.90
14095;DHT22;18096;48.142;16.290;2024-03-07T01:01:18;6.40;99.90
14095;DHT22;18096;48.142;16.290;2024-03-07T01:03:46;6.50;99.90
14095;DHT22;18096;48.142;16.290;2024-03-07T01:06:12;6.40;99.90
14095;DHT22;18096;48.142;16.290;2024-03-07T01:08:38;6.40;99.90
14095;DHT22;18096;48.142;16.290;2024-03-07T01:11:05;6.40;99.90
14095;DHT22;18096;48.142;16.290;2024-03-07T01:13:38;6.40;99.90
14095;DHT22;18096;48.142;16.290;2024-03-07T01:16:05;6.40;99.90
14095;DHT22;18096;48.142;16.290;2024-03-07T01:18:31;6.30;99.90
14095;DHT22;18096;48.142;16.290;2024-03-07T01:20:59;6.30;99.90
14095;DHT22;18096;48.142;16.290;2024-03-07T01:23:25;6.40;99.90
14095;DHT22;18096;48.142;16.290;2024-03-07T01:25:50;6.30;99.90
14095;DHT22;18096;48.142;16.290;2024-03-07T01:28:16;6.30;99.90
14095;DHT22;18096;48.142;16.290;2024-03-07T01:30:43;6.50;99.90
14095;DHT22;18096;48.142;16.290;2024-03-07T01:33:09;8.40;99.90
14095;DHT22;18096;48.142;16.290;2024-03-07T01:35:34;6.30;99.90
14095;DHT22;18096;48.142;16.290;2024-03-07T01:38:01;6.30;99.90
14095;DHT22;18096;48.142;16.290;2024-03-07T01:40:28;6.40;99.90
14095;DHT22;18096;48.142;16.290;2024-03-07T01:42:54;6.40;99.90
14095;DHT22;18096;48.142;16.290;2024-03-07T01:45:20;6.40;99.90
14095;DHT22;18096;48.142;16.290;2024-03-07T01:47:46;6.40;99.90
14095;DHT22;18096;48.142;16.290;2024-03-07T01:50:12;6.40;99.90
14095;DHT22;18096;48.142;16.290;2024-03-07T01:52:40;6.40;99.90
14095;DHT22;18096;48.142;16.290;2024-03-07T01:55:07;6.40;99.90
14095;DHT22;18096;48.142;16.290;2024-03-07T01:57:33;6.40;99.90
14095;DHT22;18096;48.142;16.290;2024-03-07T02:00:00;6.40;99.90
14095;DHT22;18096;48.142;16.290;2024-03-07T02:02:32;6.40;99.90
14095;DHT22;18096;48.142;16.290;2024-03-07T02:04:58;6.40;99.90
14095;DHT22;18096;48.142;16.290;2024-03-07T02:07:23;6.40;99.90
14095;DHT22;18096;48.142;16.290;2024-03-07T02:09:49;6.30;99.90
14095;DHT22;18096;48.142;16.290;2024-03-07T02:12:15;6.50;99.90
14095;DHT22;18096;48.142;16.290;2024-03-07T02:14:40;6.30;99.90
14095;DHT22;18096;48.142;16.290;2024-03-07T02:17:06;6.50;99.90
14095;DHT22;18096;48.142;16.290;2024-03-07T02:19:32;6.20;99.90
14095;DHT22;18096;48.142;16.290;2024-03-07T02:21:58;6.30;99.90
14095;DHT22;18096;48.142;16.290;2024-03-07T02:24:24;6.30;99.90
14095;DHT22;18096;48.142;16.290;2024-03-07T02:26:50;6.30;99.90
14095;DHT22;18096;48.142;16.290;2024-03-07T02:29:15;6.30;99.90
14095;DHT22;18096;48.142;16.290;2024-03-07T02:31:41;6.30;99.90
14095;DHT22;18096;48.142;16.290;2024-03-07T02:34:07;6.20;99.90
14095;DHT22;18096;48.142;16.290;2024-03-07T02:36:33;6.30;99.90
14095;DHT22;18096;48.142;16.290;2024-03-07T02:38:59;6.30;99.90
14095;DHT22;18096;48.142;16.290;2024-03-07T02:41:25;6.20;99.90
14095;DHT22;18096;48.142;16.290;2024-03-07T02:43:51;6.30;99.90
14095;DHT22;18096;48.142;16.290;2024-03-07T02:46:17;6.30;99.90
14095;DHT22;18096;48.142;16.290;2024-03-07T02:48:43;6.50;99.90
14095;DHT22;18096;48.142;16.290;2024-03-07T02:51:10;6.30;99.90
14095;DHT22;18096;48.142;16.290;2024-03-07T02:53:36;6.30;99.90
14095;DHT22;18096;48.142;16.290;2024-03-07T02:56:04;6.30;99.90
14095;DHT22;18096;48.142;16.290;2024-03-07T02:58:33;6.30;99.90
14095;DHT22;18096;48.142;16.290;2024-03-07T03:00:59;6.30;99.90
14095;DHT22;18096;48.142;16.290;2024-03-07T03:03:29;6.30;99.90
14095;DHT22;18096;48.142;16.290;2024-03-07T03:05:58;6.30;99.90
14095;DHT22;18096;48.142;16.290;2024-03-07T03:08:24;6.30;99.90
14095;DHT22;18096;48.142;16.290;2024-03-07T03:10:50;6.30;99.90
14095;DHT22;18096;48.142;16.290;2024-03-07T03:13:18;6.30;99.90
14095;DHT22;18096;48.142;16.290;2024-03-07T03:15:44;6.30;99.90
14095;DHT22;18096;48.142;16.290;2024-03-07T03:18:11;6.30;99.90
14095;DHT22;18096;48.142;16.290;2024-03-07T03:20:38;6.30;99.90
14095;DHT22;18096;48.142;16.290;2024-03-07T03:23:05;6.30;99.90
14095;DHT22;18096;48.142;16.290;2024-03-07T03:25:31;6.30;99.90
14095;DHT22;18096;48.142;16.290;2024-03-07T03:28:01;6.30;99.90
14095;DHT22;18096;48.142;16.290;2024-03-07T03:30:29;6.30;99.90
14095;DHT22;18096;48.142;16.290;2024-03-07T03:32:54;6.30;99.90
14095;DHT22;18096;48.142;16.290;2024-03-07T03:35:20;6.40;99.90
14095;DHT22;18096;48.142;16.290;2024-03-07T03:37:46;6.20;99.90
14095;DHT22;18096;48.142;16.290;2024-03-07T03:40:12;6.30;99.90
14095;DHT22;18096;48.142;16.290;2024-03-07T03:42:42;6.30;99.90
14095;DHT22;18096;48.142;16.290;2024-03-07T03:45:09;6.30;99.90
14095;DHT22;18096;48.142;16.290;2024-03-07T03:47:40;6.30;99.90
14095;DHT22;18096;48.142;16.290;2024-03-07T03:50:08;6.40;99.90
14095;DHT22;18096;48.142;16.290;2024-03-07T03:52:34;6.40;99.90
14095;DHT22;18096;48.142;16.290;2024-03-07T03:55:04;6.40;99.90
14095;DHT22;18096;48.142;16.290;2024-03-07T03:57:31;6.40;99.90
14095;DHT22;18096;48.142;16.290;2024-03-07T03:59:57;6.40;99.90
14095;DHT22;18096;48.142;16.290;2024-03-07T04:02:23;6.40;99.90
14095;DHT22;18096;48.142;16.290;2024-03-07T04:04:50;6.40;99.90
14095;DHT22;18096;48.142;16.290;2024-03-07T04:07:17;6.40;99.90
14095;DHT22;18096;48.142;16.290;2024-03-07T04:09:44;6.40;99.90
14095;DHT22;18096;48.142;16.290;2024-03-07T04:12:10;6.40;99.90
14095;DHT22;18096;48.142;16.290;2024-03-07T04:14:40;6.40;99.90
14095;DHT22;18096;48.142;16.290;2024-03-07T04:17:10;6.40;99.90
14095;DHT22;18096;48.142;16.290;2024-03-07T04:19:40;6.40;99.90
14095;DHT22;18096;48.142;16.290;2024-03-07T04:22:07;6.40;99.90
14095;DHT22;18096;48.142;16.290;2024-03-07T04:24:34;6.40;99.90
14095;DHT22;18096;48.142;16.290;2024-03-07T04:27:04;6.40;99.90
14095;DHT22;18096;48.142;16.290;2024-03-07T04:29:33;6.40;99.90
14095;DHT22;18096;48.142;16.290;2024-03-07T04:32:00;6.50;99.90
14095;DHT22;18096;48.142;16.290;2024-03-07T04:34:27;6.50;99.90
14095;DHT22;18096;48.142;16.290;2024-03-07T04:37:02;6.50;99.90
14095;DHT22;18096;48.142;16.290;2024-03-07T04:39:27;6.50;99.90
14095;DHT22;18096;48.142;16.290;2024-03-07T04:44:27;6.50;99.90
14095;DHT22;18096;48.142;16.290;2024-03-07T04:46:53;9.00;99.90
14095;DHT22;18096;48.142;16.290;2024-03-07T04:49:23;6.50;99.90
14095;DHT22;18096;48.142;16.290;2024-03-07T04:51:50;6.50;99.90
14095;DHT22;18096;48.142;16.290;2024-03-07T04:54:16;6.40;99.90
14095;DHT22;18096;48.142;16.290;2024-03-07T04:56:42;6.40;99.90
14095;DHT22;18096;48.142;16.290;2024-03-07T04:59:08;6.50;99.90
14095;DHT22;18096;48.142;16.290;2024-03-07T05:01:33;6.40;99.90
14095;DHT22;18096;48.142;16.290;2024-03-07T05:03:59;6.60;99.90
14095;DHT22;18096;48.142;16.290;2024-03-07T05:06:26;6.50;99.90
14095;DHT22;18096;48.142;16.290;2024-03-07T05:08:51;6.50;99.90
14095;DHT22;18096;48.142;16.290;2024-03-07T05:11:17;6.60;99.90
14095;DHT22;18096;48.142;16.290;2024-03-07T05:13:42;6.40;99.90
14095;DHT22;18096;48.142;16.290;2024-03-07T05:16:08;6.50;99.90
14095;DHT22;18096;48.142;16.290;2024-03-07T05:18:34;6.40;99.90
14095;DHT22;18096;48.142;16.290;2024-03-07T05:20:59;6.40;99.90
14095;DHT22;18096;48.142;16.290;2024-03-07T05:23:45;6.50;99.90
14095;DHT22;18096;48.142;16.290;2024-03-07T05:26:10;6.40;99.90
14095;DHT22;18096;48.142;16.290;2024-03-07T05:28:36;6.50;99.90
14095;DHT22;18096;48.142;16.290;2024-03-07T05:31:02;6.50;99.90
14095;DHT22;18096;48.142;16.290;2024-03-07T05:33:29;6.40;99.90
14095;DHT22;18096;48.142;16.290;2024-03-07T05:35:55;6.50;99.90
14095;DHT22;18096;48.142;16.290;2024-03-07T05:38:39;6.50;99.90
14095;DHT22;18096;48.142;16.290;2024-03-07T05:41:05;6.40;99.90
14095;DHT22;18096;48.142;16.290;2024-03-07T05:43:30;6.40;99.90
14095;DHT22;18096;48.142;16.290;2024-03-07T05:45:57;6.40;99.90
14095;DHT22;18096;48.142;16.290;2024-03-07T05:48:26;6.40;99.90
14095;DHT22;18096;48.142;16.290;2024-03-07T05:50:51;6.40;99.90
14095;DHT22;18096;48.142;16.290;2024-03-07T05:53:18;6.30;99.90
14095;DHT22;18096;48.142;16.290;2024-03-07T05:55:43;6.40;99.90
14095;DHT22;18096;48.142;16.290;2024-03-07T05:58:11;6.30;99.90
14095;DHT22;18096;48.142;16.290;2024-03-07T06:00:36;6.30;99.90
14095;DHT22;18096;48.142;16.290;2024-03-07T06:03:04;6.30;99.90
14095;DHT22;18096;48.142;16.290;2024-03-07T06:05:30;6.60;99.90
14095;DHT22;18096;48.142;16.290;2024-03-07T06:07:56;6.40;99.90
14095;DHT22;18096;48.142;16.290;2024-03-07T06:10:22;6.40;99.90
14095;DHT22;18096;48.142;16.290;2024-03-07T06:12:52;6.50;99.90
14095;DHT22;18096;48.142;16.290;2024-03-07T06:15:18;6.40;99.90
14095;DHT22;18096;48.142;16.290;2024-03-07T06:17:44;6.40;99.90
14095;DHT22;18096;48.142;16.290;2024-03-07T06:20:12;6.40;99.90
14095;DHT22;18096;48.142;16.290;2024-03-07T06:22:48;6.40;99.90
14095;DHT22;18096;48.142;16.290;2024-03-07T06:25:16;6.40;99.90
14095;DHT22;18096;48.142;16.290;2024-03-07T06:27:46;6.40;99.90
14095;DHT22;18096;48.142;16.290;2024-03-07T06:30:18;6.40;99.90
14095;DHT22;18096;48.142;16.290;2024-03-07T06:32:46;6.40;99.90
14095;DHT22;18096;48.142;16.290;2024-03-07T06:35:12;6.40;99.90
14095;DHT22;18096;48.142;16.290;2024-03-07T06:37:38;6.40;99.90
14095;DHT22;18096;48.142;16.290;2024-03-07T06:40:05;6.40;99.90
14095;DHT22;18096;48.142;16.290;2024-03-07T06:42:35;6.40;99.90
14095;DHT22;18096;48.142;16.290;2024-03-07T06:45:03;6.40;99.90
14095;DHT22;18096;48.142;16.290;2024-03-07T06:47:29;6.40;99.90
14095;DHT22;18096;48.142;16.290;2024-03-07T06:49:54;6.30;99.90
14095;DHT22;18096;48.142;16.290;2024-03-07T06:52:21;6.30;99.90
14095;DHT22;18096;48.142;16.290;2024-03-07T06:54:47;6.30;99.90
14095;DHT22;18096;48.142;16.290;2024-03-07T06:57:12;6.30;99.90
14095;DHT22;18096;48.142;16.290;2024-03-07T06:59:38;6.30;99.90
14095;DHT22;18096;48.142;16.290;2024-03-07T07:02:04;6.50;99.90
14095;DHT22;18096;48.142;16.290;2024-03-07T07:04:29;6.30;99.90
14095;DHT22;18096;48.142;16.290;2024-03-07T07:07:10;6.30;99.90
14095;DHT22;18096;48.142;16.290;2024-03-07T07:09:38;6.30;99.90
14095;DHT22;18096;48.142;16.290;2024-03-07T07:12:04;6.40;99.90
14095;DHT22;18096;48.142;16.290;2024-03-07T07:14:29;6.40;99.90
14095;DHT22;18096;48.142;16.290;2024-03-07T07:16:55;6.50;99.90
14095;DHT22;18096;48.142;16.290;2024-03-07T07:19:27;6.50;99.90
14095;DHT22;18096;48.142;16.290;2024-03-07T07:21:53;6.60;99.90
14095;DHT22;18096;48.142;16.290;2024-03-07T07:24:22;6.60;99.90
14095;DHT22;18096;48.142;16.290;2024-03-07T07:26:52;6.60;99.90
14095;DHT22;18096;48.142;16.290;2024-03-07T07:29:17;6.60;99.90
14095;DHT22;18096;48.142;16.290;2024-03-07T07:31:43;6.70;99.90
14095;DHT22;18096;48.142;16.290;2024-03-07T07:34:10;6.60;99.90
14095;DHT22;18096;48.142;16.290;2024-03-07T07:36:36;6.50;99.90
14095;DHT22;18096;48.142;16.290;2024-03-07T07:39:02;6.60;99.90
14095;DHT22;18096;48.142;16.290;2024-03-07T07:41:28;6.60;99.90
14095;DHT22;18096;48.142;16.290;2024-03-07T07:43:55;6.60;99.90
14095;DHT22;18096;48.142;16.290;2024-03-07T07:48:48;6.60;99.90
14095;DHT22;18096;48.142;16.290;2024-03-07T07:51:14;6.70;99.90
14095;DHT22;18096;48.142;16.290;2024-03-07T07:53:40;6.70;99.90
14095;DHT22;18096;48.142;16.290;2024-03-07T07:56:06;6.80;99.90
14095;DHT22;18096;48.142;16.290;2024-03-07T07:58:33;6.80;99.90
14095;DHT22;18096;48.142;16.290;2024-03-07T08:00:58;6.80;99.90
14095;DHT22;18096;48.142;16.290;2024-03-07T08:03:24;6.80;99.90
14095;DHT22;18096;48.142;16.290;2024-03-07T08:05:49;6.80;99.90
14095;DHT22;18096;48.142;16.290;2024-03-07T08:08:15;6.80;99.90
14095;DHT22;18096;48.142;16.290;2024-03-07T08:10:42;6.80;99.90
14095;DHT22;18096;48.142;16.290;2024-03-07T08:13:07;6.90;99.90
14095;DHT22;18096;48.142;16.290;2024-03-07T08:15:36;6.70;99.90
14095;DHT22;18096;48.142;16.290;2024-03-07T08:18:02;6.60;99.90
14095;DHT22;18096;48.142;16.290;2024-03-07T08:20:34;6.60;99.90
14095;DHT22;18096;48.142;16.290;2024-03-07T08:23:02;6.60;99.90
14095;DHT22;18096;48.142;16.290;2024-03-07T08:25:29;6.60;99.90
14095;DHT22;18096;48.142;16.290;2024-03-07T08:27:56;6.60;99.90
14095;DHT22;18096;48.142;16.290;2024-03-07T08:30:23;6.70;99.90
14095;DHT22;18096;48.142;16.290;2024-03-07T08:32:51;6.70;99.90
14095;DHT22;18096;48.142;16.290;2024-03-07T08:35:17;6.90;99.90
14095;DHT22;18096;48.142;16.290;2024-03-07T08:37:44;7.00;99.90
14095;DHT22;18096;48.142;16.290;2024-03-07T08:40:10;7.10;99.90
14095;DHT22;18096;48.142;16.290;2024-03-07T08:42:40;7.20;99.90
14095;DHT22;18096;48.142;16.290;2024-03-07T08:45:07;7.20;99.90
14095;DHT22;18096;48.142;16.290;2024-03-07T08:47:36;7.10;99.90
14095;DHT22;18096;48.142;16.290;2024-03-07T08:50:02;7.20;99.90
14095;DHT22;18096;48.142;16.290;2024-03-07T08:52:35;7.30;99.90
14095;DHT22;18096;48.142;16.290;2024-03-07T08:55:03;7.60;99.90
14095;DHT22;18096;48.142;16.290;2024-03-07T08:57:29;7.70;99.90
14095;DHT22;18096;48.142;16.290;2024-03-07T09:02:21;8.00;99.90
14095;DHT22;18096;48.142;16.290;2024-03-07T09:04:47;8.20;99.90
14095;DHT22;18096;48.142;16.290;2024-03-07T09:07:13;8.40;99.90
14095;DHT22;18096;48.142;16.290;2024-03-07T09:09:40;8.60;99.90
14095;DHT22;18096;48.142;16.290;2024-03-07T09:12:09;8.80;99.90
14095;DHT22;18096;48.142;16.290;2024-03-07T09:14:35;9.20;99.90
14095;DHT22;18096;48.142;16.290;2024-03-07T09:17:01;9.70;99.90
14095;DHT22;18096;48.142;16.290;2024-03-07T09:19:27;10.20;99.90
14095;DHT22;18096;48.142;16.290;2024-03-07T09:21:54;10.80;99.90
14095;DHT22;18096;48.142;16.290;2024-03-07T09:24:20;11.10;99.90
14095;DHT22;18096;48.142;16.290;2024-03-07T09:26:52;11.10;99.90
14095;DHT22;18096;48.142;16.290;2024-03-07T09:29:18;11.00;99.90
14095;DHT22;18096;48.142;16.290;2024-03-07T09:31:45;10.80;99.90
14095;DHT22;18096;48.142;16.290;2024-03-07T09:34:12;10.80;99.90
14095;DHT22;18096;48.142;16.290;2024-03-07T09:36:41;11.20;99.90
14095;DHT22;18096;48.142;16.290;2024-03-07T09:39:07;11.80;99.90
14095;DHT22;18096;48.142;16.290;2024-03-07T09:41:34;11.80;99.90
14095;DHT22;18096;48.142;16.290;2024-03-07T09:44:00;11.50;99.10
14095;DHT22;18096;48.142;16.290;2024-03-07T09:46:26;11.10;99.50
14095;DHT22;18096;48.142;16.290;2024-03-07T09:48:52;11.00;99.90
14095;DHT22;18096;48.142;16.290;2024-03-07T09:51:20;10.70;99.90
14095;DHT22;18096;48.142;16.290;2024-03-07T09:53:50;10.40;99.90
14095;DHT22;18096;48.142;16.290;2024-03-07T09:56:27;10.00;99.90
14095;DHT22;18096;48.142;16.290;2024-03-07T09:59:03;9.60;99.90
14095;DHT22;18096;48.142;16.290;2024-03-07T10:01:32;9.40;99.90
14095;DHT22;18096;48.142;16.290;2024-03-07T10:04:00;9.20;99.90
14095;DHT22;18096;48.142;16.290;2024-03-07T10:06:43;9.20;99.90
14095;DHT22;18096;48.142;16.290;2024-03-07T10:09:11;9.10;99.90
14095;DHT22;18096;48.142;16.290;2024-03-07T10:11:40;9.00;99.90
14095;DHT22;18096;48.142;16.290;2024-03-07T10:14:11;8.80;99.90
14095;DHT22;18096;48.142;16.290;2024-03-07T10:16:37;8.60;99.90
14095;DHT22;18096;48.142;16.290;2024-03-07T10:19:06;8.40;99.90
14095;DHT22;18096;48.142;16.290;2024-03-07T10:21:35;8.80;99.90
14095;DHT22;18096;48.142;16.290;2024-03-07T10:24:08;9.10;99.90
14095;DHT22;18096;48.142;16.290;2024-03-07T10:26:35;9.30;99.90
14095;DHT22;18096;48.142;16.290;2024-03-07T10:29:01;9.10;99.90
14095;DHT22;18096;48.142;16.290;2024-03-07T10:31:33;8.80;99.90
14095;DHT22;18096;48.142;16.290;2024-03-07T10:34:03;8.60;99.90
14095;DHT22;18096;48.142;16.290;2024-03-07T10:36:32;8.50;99.90
14095;DHT22;18096;48.142;16.290;2024-03-07T10:39:01;8.30;99.90
14095;DHT22;18096;48.142;16.290;2024-03-07T10:41:35;8.30;99.90
14095;DHT22;18096;48.142;16.290;2024-03-07T10:44:03;8.60;99.90
14095;DHT22;18096;48.142;16.290;2024-03-07T10:46:30;9.10;99.90
14095;DHT22;18096;48.142;16.290;2024-03-07T10:48:59;9.20;99.90
14095;DHT22;18096;48.142;16.290;2024-03-07T10:51:33;9.00;99.90
14095;DHT22;18096;48.142;16.290;2024-03-07T10:54:24;8.80;99.90
14095;DHT22;18096;48.142;16.290;2024-03-07T10:59:56;8.80;99.90
14095;DHT22;18096;48.142;16.290;2024-03-07T11:04:53;8.80;99.90
14095;DHT22;18096;48.142;16.290;2024-03-07T11:07:23;9.50;99.90
14095;DHT22;18096;48.142;16.290;2024-03-07T11:09:53;10.70;99.90
14095;DHT22;18096;48.142;16.290;2024-03-07T11:12:24;13.70;99.90
14095;DHT22;18096;48.142;16.290;2024-03-07T11:14:53;12.50;99.90
14095;DHT22;18096;48.142;16.290;2024-03-07T11:17:21;12.30;99.90
14095;DHT22;18096;48.142;16.290;2024-03-07T11:19:47;11.80;99.90
14095;DHT22;18096;48.142;16.290;2024-03-07T11:22:30;11.30;99.90
14095;DHT22;18096;48.142;16.290;2024-03-07T11:25:02;10.80;99.90
14095;DHT22;18096;48.142;16.290;2024-03-07T11:27:33;10.70;99.90
14095;DHT22;18096;48.142;16.290;2024-03-07T11:30:05;10.30;99.90
14095;DHT22;18096;48.142;16.290;2024-03-07T11:32:38;10.10;99.90
14095;DHT22;18096;48.142;16.290;2024-03-07T11:35:04;9.60;99.90
14095;DHT22;18096;48.142;16.290;2024-03-07T11:37:41;9.20;99.90
14095;DHT22;18096;48.142;16.290;2024-03-07T11:40:12;8.90;99.90
14095;DHT22;18096;48.142;16.290;2024-03-07T11:42:47;8.70;99.90
14095;DHT22;18096;48.142;16.290;2024-03-07T11:45:14;8.40;99.90
14095;DHT22;18096;48.142;16.290;2024-03-07T11:47:53;8.10;99.90
14095;DHT22;18096;48.142;16.290;2024-03-07T11:50:25;7.80;99.90
14095;DHT22;18096;48.142;16.290;2024-03-07T11:52:53;7.70;99.90
14095;DHT22;18096;48.142;16.290;2024-03-07T11:55:21;7.50;99.90
14095;DHT22;18096;48.142;16.290;2024-03-07T11:57:48;7.40;99.90
14095;DHT22;18096;48.142;16.290;2024-03-07T12:00:14;7.30;99.90
14095;DHT22;18096;48.142;16.290;2024-03-07T12:02:46;7.20;99.90
14095;DHT22;18096;48.142;16.290;2024-03-07T12:05:14;7.00;99.90
14095;DHT22;18096;48.142;16.290;2024-03-07T12:07:42;6.90;99.90
14095;DHT22;18096;48.142;16.290;2024-03-07T12:10:09;6.90;99.90
14095;DHT22;18096;48.142;16.290;2024-03-07T12:12:35;6.80;99.90
14095;DHT22;18096;48.142;16.290;2024-03-07T12:15:07;6.70;99.90
14095;DHT22;18096;48.142;16.290;2024-03-07T12:17:45;6.60;99.90
14095;DHT22;18096;48.142;16.290;2024-03-07T12:20:12;6.60;99.90
14095;DHT22;18096;48.142;16.290;2024-03-07T12:22:51;6.70;99.90
14095;DHT22;18096;48.142;16.290;2024-03-07T12:25:18;6.80;99.90
14095;DHT22;18096;48.142;16.290;2024-03-07T12:30:29;6.80;99.90
14095;DHT22;18096;48.142;16.290;2024-03-07T12:32:58;6.80;99.90
14095;DHT22;18096;48.142;16.290;2024-03-07T12:35:25;6.80;99.90
14095;DHT22;18096;48.142;16.290;2024-03-07T12:37:50;6.80;99.90
14095;DHT22;18096;48.142;16.290;2024-03-07T12:40:16;6.90;99.90
14095;DHT22;18096;48.142;16.290;2024-03-07T12:42:48;6.90;99.90
14095;DHT22;18096;48.142;16.290;2024-03-07T12:45:15;6.90;99.90
14095;DHT22;18096;48.142;16.290;2024-03-07T12:47:43;6.90;99.90
14095;DHT22;18096;48.142;16.290;2024-03-07T12:50:12;6.90;99.90
14095;DHT22;18096;48.142;16.290;2024-03-07T12:52:38;7.00;99.90
14095;DHT22;18096;48.142;16.290;2024-03-07T12:55:06;7.00;99.90
14095;DHT22;18096;48.142;16.290;2024-03-07T12:57:32;7.10;99.90
14095;DHT22;18096;48.142;16.290;2024-03-07T12:59:57;7.10;99.90
14095;DHT22;18096;48.142;16.290;2024-03-07T13:02:23;7.10;99.90
14095;DHT22;18096;48.142;16.290;2024-03-07T13:04:53;7.00;99.90
14095;DHT22;18096;48.142;16.290;2024-03-07T13:07:18;7.00;99.90
14095;DHT22;18096;48.142;16.290;2024-03-07T13:09:44;6.90;99.90
14095;DHT22;18096;48.142;16.290;2024-03-07T13:12:09;6.90;99.90
14095;DHT22;18096;48.142;16.290;2024-03-07T13:14:36;7.10;99.90
14095;DHT22;18096;48.142;16.290;2024-03-07T13:17:02;7.10;99.90
14095;DHT22;18096;48.142;16.290;2024-03-07T13:19:28;7.20;99.90
14095;DHT22;18096;48.142;16.290;2024-03-07T13:21:54;7.20;99.90
14095;DHT22;18096;48.142;16.290;2024-03-07T13:24:21;7.20;99.90
14095;DHT22;18096;48.142;16.290;2024-03-07T13:26:47;7.20;99.90
14095;DHT22;18096;48.142;16.290;2024-03-07T13:29:16;7.10;99.90
14095;DHT22;18096;48.142;16.290;2024-03-07T13:31:44;7.10;99.90
14095;DHT22;18096;48.142;16.290;2024-03-07T13:34:10;7.20;99.90
14095;DHT22;18096;48.142;16.290;2024-03-07T13:36:40;7.10;99.90
14095;DHT22;18096;48.142;16.290;2024-03-07T13:39:06;7.00;99.90
14095;DHT22;18096;48.142;16.290;2024-03-07T13:41:43;7.00;99.90
14095;DHT22;18096;48.142;16.290;2024-03-07T13:44:14;7.10;99.90
14095;DHT22;18096;48.142;16.290;2024-03-07T13:46:40;7.00;99.90
14095;DHT22;18096;48.142;16.290;2024-03-07T13:49:05;6.90;99.90
14095;DHT22;18096;48.142;16.290;2024-03-07T13:51:52;6.90;99.90
14095;DHT22;18096;48.142;16.290;2024-03-07T13:54:25;6.90;99.90
14095;DHT22;18096;48.142;16.290;2024-03-07T14:05:56;6.90;99.90
14095;DHT22;18096;48.142;16.290;2024-03-07T14:11:15;6.80;99.90
14095;DHT22;18096;48.142;16.290;2024-03-07T14:13:53;6.80;99.90
14095;DHT22;18096;48.142;16.290;2024-03-07T14:17:09;6.80;99.90
14095;DHT22;18096;48.142;16.290;2024-03-07T14:31:11;6.80;99.90
14095;DHT22;18096;48.142;16.290;2024-03-07T14:36:43;6.70;99.90
14095;DHT22;18096;48.142;16.290;2024-03-07T14:39:14;6.70;99.90
14095;DHT22;18096;48.142;16.290;2024-03-07T14:44:18;6.80;99.90
14095;DHT22;18096;48.142;16.290;2024-03-07T14:46:47;6.80;99.90
14095;DHT22;18096;48.142;16.290;2024-03-07T14:49:17;6.80;99.90
14095;DHT22;18096;48.142;16.290;2024-03-07T14:51:42;6.80;99.90
14095;DHT22;18096;48.142;16.290;2024-03-07T14:54:09;6.80;99.90
14095;DHT22;18096;48.142;16.290;2024-03-07T14:56:36;6.70;99.90
14095;DHT22;18096;48.142;16.290;2024-03-07T14:59:01;6.80;99.90
14095;DHT22;18096;48.142;16.290;2024-03-07T15:01:31;6.70;99.90
14095;DHT22;18096;48.142;16.290;2024-03-07T15:04:00;6.70;99.90
14095;DHT22;18096;48.142;16.290;2024-03-07T15:06:26;6.60;99.90
14095;DHT22;18096;48.142;16.290;2024-03-07T15:08:51;6.60;99.90
14095;DHT22;18096;48.142;16.290;2024-03-07T15:11:28;6.60;99.90
14095;DHT22;18096;48.142;16.290;2024-03-07T15:13:55;6.60;99.90
14095;DHT22;18096;48.142;16.290;2024-03-07T15:16:20;6.60;99.90
14095;DHT22;18096;48.142;16.290;2024-03-07T15:18:49;6.60;99.90
14095;DHT22;18096;48.142;16.290;2024-03-07T15:21:15;6.60;99.90
14095;DHT22;18096;48.142;16.290;2024-03-07T15:23:43;6.60;99.90
14095;DHT22;18096;48.142;16.290;2024-03-07T15:26:08;6.60;99.90
14095;DHT22;18096;48.142;16.290;2024-03-07T15:28:34;6.60;99.90
14095;DHT22;18096;48.142;16.290;2024-03-07T15:31:01;6.60;99.90
14095;DHT22;18096;48.142;16.290;2024-03-07T15:33:32;6.50;99.90
14095;DHT22;18096;48.142;16.290;2024-03-07T15:35:58;6.60;99.90
14095;DHT22;18096;48.142;16.290;2024-03-07T15:38:23;6.50;99.90
14095;DHT22;18096;48.142;16.290;2024-03-07T15:41:02;6.50;99.90
14095;DHT22;18096;48.142;16.290;2024-03-07T15:43:27;6.50;99.90
14095;DHT22;18096;48.142;16.290;2024-03-07T15:45:56;6.50;99.90
14095;DHT22;18096;48.142;16.290;2024-03-07T15:48:25;6.60;99.90
14095;DHT22;18096;48.142;16.290;2024-03-07T15:50:52;6.50;99.90
14095;DHT22;18096;48.142;16.290;2024-03-07T15:53:18;6.50;99.90
14095;DHT22;18096;48.142;16.290;2024-03-07T15:55:44;6.50;99.90
14095;DHT22;18096;48.142;16.290;2024-03-07T15:58:10;6.70;99.90
14095;DHT22;18096;48.142;16.290;2024-03-07T16:00:37;6.60;99.90
14095;DHT22;18096;48.142;16.290;2024-03-07T16:03:06;6.60;99.90
14095;DHT22;18096;48.142;16.290;2024-03-07T16:05:40;6.60;99.90
14095;DHT22;18096;48.142;16.290;2024-03-07T16:08:08;6.60;99.90
14095;DHT22;18096;48.142;16.290;2024-03-07T16:10:35;6.60;99.90
14095;DHT22;18096;48.142;16.290;2024-03-07T16:13:05;6.60;99.90
14095;DHT22;18096;48.142;16.290;2024-03-07T16:15:35;6.50;99.90
14095;DHT22;18096;48.142;16.290;2024-03-07T16:18:01;6.60;99.90